sensor_id;sensor_type;location;lat;lon;timestamp;P1;durP1;ratioP1;P2;durP2;ratioP2
6777;SDS011;3426;52.244;10.534;2023-04-12T00:00:26;1.10;;;1.10;;
6777;SDS011;3426;52.244;10.534;2023-04-12T00:02:53;1.10;;;1.10;;
6777;SDS011;3426;52.244;10.534;2023-04-12T00:05:20;1.00;;;1.00;;
6777;SDS011;3426;52.244;10.534;2023-04-12T00:07:48;1.00;;;1.00;;
6777;SDS011;3426;52.244;10.534;2023-04-12T00:10:18;1.10;;;1.10;;
6777;SDS011;3426;52.244;10.534;2023-04-12T00:12:44;1.10;;;1.10;;
6777;SDS011;3426;52.244;10.534;2023-04-12T00:15:12;1.00;;;1.00;;
6777;SDS011;3426;52.244;10.534;2023-04-12T00:17:42;1.00;;;1.00;;
6777;SDS011;3426;52.244;10.534;2023-04-12T00:20:09;1.07;;;1.07;;
6777;SDS011;3426;52.244;10.534;2023-04-12T00:22:38;0.93;;;0.93;;
6777;SDS011;3426;52.244;10.534;2023-04-12T00:25:07;1.00;;;1.00;;
6777;SDS011;3426;52.244;10.534;2023-04-12T00:27:34;1.00;;;1.00;;
6777;SDS011;3426;52.244;10.534;2023-04-12T00:30:01;1.03;;;1.03;;
6777;SDS011;3426;52.244;10.534;2023-04-12T00:32:28;1.00;;;1.00;;
6777;SDS011;3426;52.244;10.534;2023-04-12T00:34:55;1.00;;;1.00;;
6777;SDS011;3426;52.244;10.534;2023-04-12T00:37:22;1.00;;;1.00;;
6777;SDS011;3426;52.244;10.534;2023-04-12T00:39:48;1.00;;;1.00;;
6777;SDS011;3426;52.244;10.534;2023-04-12T00:42:15;0.90;;;0.90;;
6777;SDS011;3426;52.244;10.534;2023-04-12T00:44:41;1.00;;;1.00;;
6777;SDS011;3426;52.244;10.534;2023-04-12T00:47:08;0.97;;;0.97;;
6777;SDS011;3426;52.244;10.534;2023-04-12T00:49:34;0.90;;;0.90;;
6777;SDS011;3426;52.244;10.534;2023-04-12T00:52:06;1.10;;;1.10;;
6777;SDS011;3426;52.244;10.534;2023-04-12T00:54:34;1.00;;;1.00;;
6777;SDS011;3426;52.244;10.534;2023-04-12T00:57:01;1.00;;;1.00;;
6777;SDS011;3426;52.244;10.534;2023-04-12T00:59:28;1.00;;;1.00;;
6777;SDS011;3426;52.244;10.534;2023-04-12T01:01:55;0.90;;;0.90;;
6777;SDS011;3426;52.244;10.534;2023-04-12T01:04:23;1.00;;;1.00;;
6777;SDS011;3426;52.244;10.534;2023-04-12T01:07:13;1.00;;;1.00;;
6777;SDS011;3426;52.244;10.534;2023-04-12T01:09:44;1.00;;;1.00;;
6777;SDS011;3426;52.244;10.534;2023-04-12T01:17:28;1.00;;;1.00;;
6777;SDS011;3426;52.244;10.534;2023-04-12T01:20:07;1.00;;;1.00;;
6777;SDS011;3426;52.244;10.534;2023-04-12T01:28:14;0.90;;;0.90;;
6777;SDS011;3426;52.244;10.534;2023-04-12T01:30:45;1.00;;;1.00;;
6777;SDS011;3426;52.244;10.534;2023-04-12T01:33:15;1.07;;;1.07;;
6777;SDS011;3426;52.244;10.534;2023-04-12T01:35:43;0.93;;;0.93;;
6777;SDS011;3426;52.244;10.534;2023-04-12T01:38:12;1.07;;;1.07;;
6777;SDS011;3426;52.244;10.534;2023-04-12T01:40:38;1.00;;;1.00;;
6777;SDS011;3426;52.244;10.534;2023-04-12T01:43:09;1.00;;;1.00;;
6777;SDS011;3426;52.244;10.534;2023-04-12T01:45:37;1.00;;;1.00;;
6777;SDS011;3426;52.244;10.534;2023-04-12T01:48:08;1.00;;;1.00;;
6777;SDS011;3426;52.244;10.534;2023-04-12T01:55:50;1.00;;;1.00;;
6777;SDS011;3426;52.244;10.534;2023-04-12T01:58:21;1.00;;;1.00;;
6777;SDS011;3426;52.244;10.534;2023-04-12T02:00:48;1.00;;;1.00;;
6777;SDS011;3426;52.244;10.534;2023-04-12T02:03:17;1.00;;;1.00;;
6777;SDS011;3426;52.244;10.534;2023-04-12T02:05:47;1.00;;;1.00;;
6777;SDS011;3426;52.244;10.534;2023-04-12T02:08:16;1.00;;;1.00;;
6777;SDS011;3426;52.244;10.534;2023-04-12T02:10:43;1.10;;;1.10;;
6777;SDS011;3426;52.244;10.534;2023-04-12T02:13:09;1.00;;;1.00;;
6777;SDS011;3426;52.244;10.534;2023-04-12T02:15:36;1.00;;;1.00;;
6777;SDS011;3426;52.244;10.534;2023-04-12T02:18:03;1.00;;;1.00;;
6777;SDS011;3426;52.244;10.534;2023-04-12T02:20:30;1.00;;;1.00;;
6777;SDS011;3426;52.244;10.534;2023-04-12T02:22:56;1.00;;;1.00;;
6777;SDS011;3426;52.244;10.534;2023-04-12T02:25:23;1.00;;;1.00;;
6777;SDS011;3426;52.244;10.534;2023-04-12T02:27:49;1.00;;;1.00;;
6777;SDS011;3426;52.244;10.534;2023-04-12T02:30:16;1.00;;;1.00;;
6777;SDS011;3426;52.244;10.534;2023-04-12T02:32:42;1.00;;;1.00;;
6777;SDS011;3426;52.244;10.534;2023-04-12T02:35:11;1.00;;;1.00;;
6777;SDS011;3426;52.244;10.534;2023-04-12T02:37:38;1.00;;;1.00;;
6777;SDS011;3426;52.244;10.534;2023-04-12T02:40:05;1.00;;;1.00;;
6777;SDS011;3426;52.244;10.534;2023-04-12T02:42:35;1.10;;;1.10;;
6777;SDS011;3426;52.244;10.534;2023-04-12T02:45:02;1.00;;;1.00;;
6777;SDS011;3426;52.244;10.534;2023-04-12T02:47:29;1.00;;;1.00;;
6777;SDS011;3426;52.244;10.534;2023-04-12T02:49:56;1.07;;;1.07;;
6777;SDS011;3426;52.244;10.534;2023-04-12T02:52:22;1.00;;;1.00;;
6777;SDS011;3426;52.244;10.534;2023-04-12T02:54:49;0.90;;;0.90;;
6777;SDS011;3426;52.244;10.534;2023-04-12T02:57:16;1.00;;;1.00;;
6777;SDS011;3426;52.244;10.534;2023-04-12T02:59:42;1.00;;;1.00;;
6777;SDS011;3426;52.244;10.534;2023-04-12T03:02:09;1.00;;;1.00;;
6777;SDS011;3426;52.244;10.534;2023-04-12T03:04:36;0.90;;;0.90;;
6777;SDS011;3426;52.244;10.534;2023-04-12T03:07:05;0.90;;;0.90;;
6777;SDS011;3426;52.244;10.534;2023-04-12T03:09:32;1.00;;;1.00;;
6777;SDS011;3426;52.244;10.534;2023-04-12T03:11:58;1.10;;;1.10;;
6777;SDS011;3426;52.244;10.534;2023-04-12T03:14:25;1.00;;;1.00;;
6777;SDS011;3426;52.244;10.534;2023-04-12T03:16:51;1.00;;;1.00;;
6777;SDS011;3426;52.244;10.534;2023-04-12T03:19:18;1.00;;;1.00;;
6777;SDS011;3426;52.244;10.534;2023-04-12T03:21:45;1.00;;;1.00;;
6777;SDS011;3426;52.244;10.534;2023-04-12T03:24:12;1.00;;;1.00;;
6777;SDS011;3426;52.244;10.534;2023-04-12T03:26:38;1.00;;;1.00;;
6777;SDS011;3426;52.244;10.534;2023-04-12T03:29:06;1.00;;;1.00;;
6777;SDS011;3426;52.244;10.534;2023-04-12T03:31:36;1.00;;;1.00;;
6777;SDS011;3426;52.244;10.534;2023-04-12T03:34:02;1.00;;;1.00;;
6777;SDS011;3426;52.244;10.534;2023-04-12T03:36:29;1.00;;;1.00;;
6777;SDS011;3426;52.244;10.534;2023-04-12T03:38:56;1.00;;;1.00;;
6777;SDS011;3426;52.244;10.534;2023-04-12T03:41:22;1.00;;;1.00;;
6777;SDS011;3426;52.244;10.534;2023-04-12T03:43:49;1.00;;;1.00;;
6777;SDS011;3426;52.244;10.534;2023-04-12T03:46:15;0.90;;;0.90;;
6777;SDS011;3426;52.244;10.534;2023-04-12T03:48:43;1.00;;;1.00;;
6777;SDS011;3426;52.244;10.534;2023-04-12T03:51:09;1.00;;;1.00;;
6777;SDS011;3426;52.244;10.534;2023-04-12T03:53:37;1.00;;;1.00;;
6777;SDS011;3426;52.244;10.534;2023-04-12T03:56:04;1.00;;;1.00;;
6777;SDS011;3426;52.244;10.534;2023-04-12T03:58:31;1.03;;;1.03;;
6777;SDS011;3426;52.244;10.534;2023-04-12T04:01:00;1.10;;;1.10;;
6777;SDS011;3426;52.244;10.534;2023-04-12T04:03:31;1.10;;;1.10;;
6777;SDS011;3426;52.244;10.534;2023-04-12T04:06:00;1.37;;;1.37;;
6777;SDS011;3426;52.244;10.534;2023-04-12T04:08:28;1.03;;;1.03;;
6777;SDS011;3426;52.244;10.534;2023-04-12T04:10:55;0.90;;;0.90;;
6777;SDS011;3426;52.244;10.534;2023-04-12T04:13:22;0.90;;;0.90;;
6777;SDS011;3426;52.244;10.534;2023-04-12T04:15:50;1.00;;;1.00;;
6777;SDS011;3426;52.244;10.534;2023-04-12T04:18:24;1.00;;;1.00;;
6777;SDS011;3426;52.244;10.534;2023-04-12T04:20:50;1.10;;;1.10;;
6777;SDS011;3426;52.244;10.534;2023-04-12T04:23:17;1.00;;;1.00;;
6777;SDS011;3426;52.244;10.534;2023-04-12T04:25:43;1.00;;;1.00;;
6777;SDS011;3426;52.244;10.534;2023-04-12T04:28:10;1.00;;;1.00;;
6777;SDS011;3426;52.244;10.534;2023-04-12T04:30:36;1.00;;;1.00;;
6777;SDS011;3426;52.244;10.534;2023-04-12T04:33:04;1.00;;;1.00;;
6777;SDS011;3426;52.244;10.534;2023-04-12T04:35:32;1.00;;;1.00;;
6777;SDS011;3426;52.244;10.534;2023-04-12T04:37:58;0.90;;;0.90;;
6777;SDS011;3426;52.244;10.534;2023-04-12T04:40:27;1.07;;;1.07;;
6777;SDS011;3426;52.244;10.534;2023-04-12T04:42:54;1.00;;;1.00;;
6777;SDS011;3426;52.244;10.534;2023-04-12T04:45:21;1.00;;;1.00;;
6777;SDS011;3426;52.244;10.534;2023-04-12T04:47:52;1.00;;;1.00;;
6777;SDS011;3426;52.244;10.534;2023-04-12T04:50:22;1.00;;;1.00;;
6777;SDS011;3426;52.244;10.534;2023-04-12T04:52:50;1.00;;;1.00;;
6777;SDS011;3426;52.244;10.534;2023-04-12T04:55:16;0.93;;;0.93;;
6777;SDS011;3426;52.244;10.534;2023-04-12T04:57:43;1.00;;;1.00;;
6777;SDS011;3426;52.244;10.534;2023-04-12T05:00:10;1.00;;;1.00;;
6777;SDS011;3426;52.244;10.534;2023-04-12T05:02:41;1.00;;;1.00;;
6777;SDS011;3426;52.244;10.534;2023-04-12T05:05:09;0.97;;;0.97;;
6777;SDS011;3426;52.244;10.534;2023-04-12T05:07:37;0.90;;;0.90;;
6777;SDS011;3426;52.244;10.534;2023-04-12T05:10:04;1.00;;;1.00;;
6777;SDS011;3426;52.244;10.534;2023-04-12T05:12:31;0.90;;;0.90;;
6777;SDS011;3426;52.244;10.534;2023-04-12T05:14:58;1.00;;;1.00;;
6777;SDS011;3426;52.244;10.534;2023-04-12T05:17:37;0.97;;;0.97;;
6777;SDS011;3426;52.244;10.534;2023-04-12T05:20:03;1.00;;;1.00;;
6777;SDS011;3426;52.244;10.534;2023-04-12T05:22:33;1.10;;;1.10;;
6777;SDS011;3426;52.244;10.534;2023-04-12T05:25:00;1.00;;;1.00;;
6777;SDS011;3426;52.244;10.534;2023-04-12T05:27:28;1.00;;;1.00;;
6777;SDS011;3426;52.244;10.534;2023-04-12T05:29:56;1.00;;;1.00;;
6777;SDS011;3426;52.244;10.534;2023-04-12T05:32:23;1.00;;;1.00;;
6777;SDS011;3426;52.244;10.534;2023-04-12T05:34:50;1.00;;;1.00;;
6777;SDS011;3426;52.244;10.534;2023-04-12T05:37:17;1.00;;;1.00;;
6777;SDS011;3426;52.244;10.534;2023-04-12T05:39:44;1.03;;;1.03;;
6777;SDS011;3426;52.244;10.534;2023-04-12T05:42:10;1.00;;;1.00;;
6777;SDS011;3426;52.244;10.534;2023-04-12T05:44:37;1.10;;;1.10;;
6777;SDS011;3426;52.244;10.534;2023-04-12T05:47:04;1.00;;;1.00;;
6777;SDS011;3426;52.244;10.534;2023-04-12T05:49:30;0.90;;;0.90;;
6777;SDS011;3426;52.244;10.534;2023-04-12T05:51:57;1.00;;;1.00;;
6777;SDS011;3426;52.244;10.534;2023-04-12T05:54:24;1.00;;;1.00;;
6777;SDS011;3426;52.244;10.534;2023-04-12T05:56:50;1.00;;;1.00;;
6777;SDS011;3426;52.244;10.534;2023-04-12T05:59:19;0.90;;;0.90;;
6777;SDS011;3426;52.244;10.534;2023-04-12T06:01:46;0.90;;;0.90;;
6777;SDS011;3426;52.244;10.534;2023-04-12T06:04:26;0.83;;;0.83;;
6777;SDS011;3426;52.244;10.534;2023-04-12T06:07:13;0.80;;;0.80;;
6777;SDS011;3426;52.244;10.534;2023-04-12T06:09:42;0.70;;;0.70;;
6777;SDS011;3426;52.244;10.534;2023-04-12T06:12:09;0.80;;;0.80;;
6777;SDS011;3426;52.244;10.534;2023-04-12T06:14:35;0.70;;;0.70;;
6777;SDS011;3426;52.244;10.534;2023-04-12T06:17:04;0.80;;;0.80;;
6777;SDS011;3426;52.244;10.534;2023-04-12T06:19:31;0.70;;;0.70;;
6777;SDS011;3426;52.244;10.534;2023-04-12T06:21:57;0.70;;;0.70;;
6777;SDS011;3426;52.244;10.534;2023-04-12T06:24:45;0.70;;;0.70;;
6777;SDS011;3426;52.244;10.534;2023-04-12T06:28:16;0.80;;;0.80;;
6777;SDS011;3426;52.244;10.534;2023-04-12T06:30:41;0.70;;;0.70;;
6777;SDS011;3426;52.244;10.534;2023-04-12T06:33:08;0.80;;;0.80;;
6777;SDS011;3426;52.244;10.534;2023-04-12T06:35:34;0.80;;;0.80;;
6777;SDS011;3426;52.244;10.534;2023-04-12T06:38:01;0.80;;;0.80;;
6777;SDS011;3426;52.244;10.534;2023-04-12T06:40:27;0.80;;;0.80;;
6777;SDS011;3426;52.244;10.534;2023-04-12T06:42:54;0.70;;;0.70;;
6777;SDS011;3426;52.244;10.534;2023-04-12T06:45:20;0.70;;;0.70;;
6777;SDS011;3426;52.244;10.534;2023-04-12T06:48:06;0.70;;;0.70;;
6777;SDS011;3426;52.244;10.534;2023-04-12T06:53:40;0.80;;;0.80;;
6777;SDS011;3426;52.244;10.534;2023-04-12T06:56:07;0.80;;;0.80;;
6777;SDS011;3426;52.244;10.534;2023-04-12T06:58:33;0.80;;;0.80;;
6777;SDS011;3426;52.244;10.534;2023-04-12T07:01:09;0.90;;;0.90;;
6777;SDS011;3426;52.244;10.534;2023-04-12T07:03:36;0.80;;;0.80;;
6777;SDS011;3426;52.244;10.534;2023-04-12T07:06:09;0.80;;;0.80;;
6777;SDS011;3426;52.244;10.534;2023-04-12T07:09:08;0.83;;;0.83;;
6777;SDS011;3426;52.244;10.534;2023-04-12T07:11:35;0.80;;;0.80;;
6777;SDS011;3426;52.244;10.534;2023-04-12T07:14:01;0.80;;;0.80;;
6777;SDS011;3426;52.244;10.534;2023-04-12T07:16:28;0.80;;;0.80;;
6777;SDS011;3426;52.244;10.534;2023-04-12T07:18:57;0.70;;;0.70;;
6777;SDS011;3426;52.244;10.534;2023-04-12T07:21:24;0.90;;;0.90;;
6777;SDS011;3426;52.244;10.534;2023-04-12T07:23:52;0.80;;;0.80;;
6777;SDS011;3426;52.244;10.534;2023-04-12T07:26:19;0.80;;;0.80;;
6777;SDS011;3426;52.244;10.534;2023-04-12T07:28:46;0.90;;;0.90;;
6777;SDS011;3426;52.244;10.534;2023-04-12T07:31:13;0.80;;;0.80;;
6777;SDS011;3426;52.244;10.534;2023-04-12T07:33:39;0.70;;;0.70;;
6777;SDS011;3426;52.244;10.534;2023-04-12T07:36:08;0.70;;;0.70;;
6777;SDS011;3426;52.244;10.534;2023-04-12T07:38:36;0.70;;;0.70;;
6777;SDS011;3426;52.244;10.534;2023-04-12T07:41:02;0.80;;;0.80;;
6777;SDS011;3426;52.244;10.534;2023-04-12T07:43:29;0.70;;;0.70;;
6777;SDS011;3426;52.244;10.534;2023-04-12T07:45:55;0.70;;;0.70;;
6777;SDS011;3426;52.244;10.534;2023-04-12T07:48:22;0.70;;;0.70;;
6777;SDS011;3426;52.244;10.534;2023-04-12T07:50:48;0.80;;;0.80;;
6777;SDS011;3426;52.244;10.534;2023-04-12T07:53:16;0.73;;;0.73;;
6777;SDS011;3426;52.244;10.534;2023-04-12T07:55:49;0.70;;;0.70;;
6777;SDS011;3426;52.244;10.534;2023-04-12T07:58:16;0.70;;;0.70;;
6777;SDS011;3426;52.244;10.534;2023-04-12T08:00:44;0.70;;;0.70;;
6777;SDS011;3426;52.244;10.534;2023-04-12T08:03:12;0.70;;;0.70;;
6777;SDS011;3426;52.244;10.534;2023-04-12T08:05:40;0.80;;;0.80;;
6777;SDS011;3426;52.244;10.534;2023-04-12T08:08:07;0.70;;;0.70;;
6777;SDS011;3426;52.244;10.534;2023-04-12T08:10:37;0.70;;;0.70;;
6777;SDS011;3426;52.244;10.534;2023-04-12T08:13:04;0.70;;;0.70;;
6777;SDS011;3426;52.244;10.534;2023-04-12T08:15:32;0.70;;;0.70;;
6777;SDS011;3426;52.244;10.534;2023-04-12T08:17:58;0.63;;;0.63;;
6777;SDS011;3426;52.244;10.534;2023-04-12T08:20:26;0.63;;;0.63;;
6777;SDS011;3426;52.244;10.534;2023-04-12T08:22:52;0.80;;;0.80;;
6777;SDS011;3426;52.244;10.534;2023-04-12T08:25:19;0.60;;;0.60;;
6777;SDS011;3426;52.244;10.534;2023-04-12T08:27:47;0.60;;;0.60;;
6777;SDS011;3426;52.244;10.534;2023-04-12T08:30:14;0.70;;;0.70;;
6777;SDS011;3426;52.244;10.534;2023-04-12T08:32:41;0.50;;;0.50;;
6777;SDS011;3426;52.244;10.534;2023-04-12T08:35:08;0.50;;;0.50;;
6777;SDS011;3426;52.244;10.534;2023-04-12T08:37:35;0.60;;;0.60;;
6777;SDS011;3426;52.244;10.534;2023-04-12T08:40:04;0.50;;;0.50;;
6777;SDS011;3426;52.244;10.534;2023-04-12T08:42:33;0.50;;;0.50;;
6777;SDS011;3426;52.244;10.534;2023-04-12T08:45:08;0.60;;;0.60;;
6777;SDS011;3426;52.244;10.534;2023-04-12T08:47:38;0.50;;;0.50;;
6777;SDS011;3426;52.244;10.534;2023-04-12T08:50:09;0.50;;;0.50;;
6777;SDS011;3426;52.244;10.534;2023-04-12T08:52:39;0.50;;;0.50;;
6777;SDS011;3426;52.244;10.534;2023-04-12T08:55:07;0.60;;;0.60;;
6777;SDS011;3426;52.244;10.534;2023-04-12T08:57:34;0.53;;;0.53;;
6777;SDS011;3426;52.244;10.534;2023-04-12T09:00:02;0.60;;;0.60;;
6777;SDS011;3426;52.244;10.534;2023-04-12T09:02:29;0.50;;;0.50;;
6777;SDS011;3426;52.244;10.534;2023-04-12T09:04:56;0.50;;;0.50;;
6777;SDS011;3426;52.244;10.534;2023-04-12T09:07:23;0.60;;;0.60;;
6777;SDS011;3426;52.244;10.534;2023-04-12T09:09:53;0.50;;;0.50;;
6777;SDS011;3426;52.244;10.534;2023-04-12T09:12:20;0.60;;;0.60;;
6777;SDS011;3426;52.244;10.534;2023-04-12T09:17:39;0.57;;;0.57;;
6777;SDS011;3426;52.244;10.534;2023-04-12T09:22:42;0.53;;;0.53;;
6777;SDS011;3426;52.244;10.534;2023-04-12T09:25:11;0.50;;;0.50;;
6777;SDS011;3426;52.244;10.534;2023-04-12T09:27:44;0.50;;;0.50;;
6777;SDS011;3426;52.244;10.534;2023-04-12T09:30:12;0.50;;;0.50;;
6777;SDS011;3426;52.244;10.534;2023-04-12T09:32:39;0.53;;;0.53;;
6777;SDS011;3426;52.244;10.534;2023-04-12T09:35:06;0.50;;;0.50;;
6777;SDS011;3426;52.244;10.534;2023-04-12T09:37:33;0.60;;;0.60;;
6777;SDS011;3426;52.244;10.534;2023-04-12T09:40:00;0.50;;;0.50;;
6777;SDS011;3426;52.244;10.534;2023-04-12T09:42:30;0.50;;;0.50;;
6777;SDS011;3426;52.244;10.534;2023-04-12T09:45:00;0.60;;;0.60;;
6777;SDS011;3426;52.244;10.534;2023-04-12T09:47:44;0.50;;;0.50;;
6777;SDS011;3426;52.244;10.534;2023-04-12T09:53:11;0.60;;;0.60;;
6777;SDS011;3426;52.244;10.534;2023-04-12T09:55:42;0.60;;;0.60;;
6777;SDS011;3426;52.244;10.534;2023-04-12T09:58:09;0.60;;;0.60;;
6777;SDS011;3426;52.244;10.534;2023-04-12T10:00:36;0.60;;;0.60;;
6777;SDS011;3426;52.244;10.534;2023-04-12T10:03:03;0.60;;;0.60;;
6777;SDS011;3426;52.244;10.534;2023-04-12T10:05:30;0.70;;;0.70;;
6777;SDS011;3426;52.244;10.534;2023-04-12T10:07:56;0.63;;;0.63;;
6777;SDS011;3426;52.244;10.534;2023-04-12T10:10:23;0.70;;;0.70;;
6777;SDS011;3426;52.244;10.534;2023-04-12T10:12:50;0.60;;;0.60;;
6777;SDS011;3426;52.244;10.534;2023-04-12T10:15:17;0.60;;;0.60;;
6777;SDS011;3426;52.244;10.534;2023-04-12T10:20:19;0.67;;;0.67;;
6777;SDS011;3426;52.244;10.534;2023-04-12T10:22:50;0.60;;;0.60;;
6777;SDS011;3426;52.244;10.534;2023-04-12T10:25:19;0.60;;;0.60;;
6777;SDS011;3426;52.244;10.534;2023-04-12T10:27:47;0.60;;;0.60;;
6777;SDS011;3426;52.244;10.534;2023-04-12T10:32:43;0.60;;;0.60;;
6777;SDS011;3426;52.244;10.534;2023-04-12T10:35:10;0.53;;;0.53;;
6777;SDS011;3426;52.244;10.534;2023-04-12T10:37:56;0.70;;;0.70;;
6777;SDS011;3426;52.244;10.534;2023-04-12T10:40:30;0.60;;;0.60;;
6777;SDS011;3426;52.244;10.534;2023-04-12T10:45:53;0.60;;;0.60;;
6777;SDS011;3426;52.244;10.534;2023-04-12T10:53:52;0.60;;;0.60;;
6777;SDS011;3426;52.244;10.534;2023-04-12T10:59:05;0.77;;;0.77;;
6777;SDS011;3426;52.244;10.534;2023-04-12T11:01:32;0.63;;;0.63;;
6777;SDS011;3426;52.244;10.534;2023-04-12T11:06:50;0.80;;;0.80;;
6777;SDS011;3426;52.244;10.534;2023-04-12T11:09:25;0.70;;;0.70;;
6777;SDS011;3426;52.244;10.534;2023-04-12T11:14:46;0.70;;;0.70;;
6777;SDS011;3426;52.244;10.534;2023-04-12T11:19:42;0.70;;;0.70;;
6777;SDS011;3426;52.244;10.534;2023-04-12T11:22:23;0.70;;;0.70;;
6777;SDS011;3426;52.244;10.534;2023-04-12T11:24:53;0.60;;;0.60;;
6777;SDS011;3426;52.244;10.534;2023-04-12T11:27:22;0.70;;;0.70;;
6777;SDS011;3426;52.244;10.534;2023-04-12T11:29:51;0.80;;;0.80;;
6777;SDS011;3426;52.244;10.534;2023-04-12T11:32:19;0.80;;;0.80;;
6777;SDS011;3426;52.244;10.534;2023-04-12T11:34:47;0.70;;;0.70;;
6777;SDS011;3426;52.244;10.534;2023-04-12T11:37:13;0.70;;;0.70;;
6777;SDS011;3426;52.244;10.534;2023-04-12T11:39:41;0.70;;;0.70;;
6777;SDS011;3426;52.244;10.534;2023-04-12T11:42:15;0.80;;;0.80;;
6777;SDS011;3426;52.244;10.534;2023-04-12T11:44:46;0.73;;;0.73;;
6777;SDS011;3426;52.244;10.534;2023-04-12T11:47:25;0.70;;;0.70;;
6777;SDS011;3426;52.244;10.534;2023-04-12T11:49:53;0.70;;;0.70;;
6777;SDS011;3426;52.244;10.534;2023-04-12T11:52:22;0.70;;;0.70;;
6777;SDS011;3426;52.244;10.534;2023-04-12T11:54:54;0.70;;;0.70;;
6777;SDS011;3426;52.244;10.534;2023-04-12T11:57:24;0.70;;;0.70;;
6777;SDS011;3426;52.244;10.534;2023-04-12T11:59:51;0.80;;;0.80;;
6777;SDS011;3426;52.244;10.534;2023-04-12T12:02:17;0.70;;;0.70;;
6777;SDS011;3426;52.244;10.534;2023-04-12T12:04:48;0.90;;;0.90;;
6777;SDS011;3426;52.244;10.534;2023-04-12T12:07:16;0.70;;;0.70;;
6777;SDS011;3426;52.244;10.534;2023-04-12T12:09:44;0.80;;;0.80;;
6777;SDS011;3426;52.244;10.534;2023-04-12T12:12:14;0.70;;;0.70;;
6777;SDS011;3426;52.244;10.534;2023-04-12T12:14:42;0.70;;;0.70;;
6777;SDS011;3426;52.244;10.534;2023-04-12T12:17:14;0.77;;;0.77;;
6777;SDS011;3426;52.244;10.534;2023-04-12T12:19:42;0.70;;;0.70;;
6777;SDS011;3426;52.244;10.534;2023-04-12T12:24:50;0.70;;;0.70;;
6777;SDS011;3426;52.244;10.534;2023-04-12T12:27:38;0.80;;;0.80;;
6777;SDS011;3426;52.244;10.534;2023-04-12T12:30:07;0.70;;;0.70;;
6777;SDS011;3426;52.244;10.534;2023-04-12T12:32:35;0.80;;;0.80;;
6777;SDS011;3426;52.244;10.534;2023-04-12T12:35:11;0.70;;;0.70;;
6777;SDS011;3426;52.244;10.534;2023-04-12T12:37:48;0.70;;;0.70;;
6777;SDS011;3426;52.244;10.534;2023-04-12T12:40:18;0.73;;;0.73;;
6777;SDS011;3426;52.244;10.534;2023-04-12T12:42:54;0.80;;;0.80;;
6777;SDS011;3426;52.244;10.534;2023-04-12T12:45:22;0.70;;;0.70;;
6777;SDS011;3426;52.244;10.534;2023-04-12T12:50:30;0.87;;;0.87;;
6777;SDS011;3426;52.244;10.534;2023-04-12T12:52:58;0.70;;;0.70;;
6777;SDS011;3426;52.244;10.534;2023-04-12T12:55:26;0.80;;;0.80;;
6777;SDS011;3426;52.244;10.534;2023-04-12T12:57:54;0.70;;;0.70;;
6777;SDS011;3426;52.244;10.534;2023-04-12T13:00:33;0.80;;;0.80;;
6777;SDS011;3426;52.244;10.534;2023-04-12T13:02:59;0.80;;;0.80;;
6777;SDS011;3426;52.244;10.534;2023-04-12T13:05:27;0.77;;;0.77;;
6777;SDS011;3426;52.244;10.534;2023-04-12T13:07:53;0.70;;;0.70;;
6777;SDS011;3426;52.244;10.534;2023-04-12T13:10:22;0.80;;;0.80;;
6777;SDS011;3426;52.244;10.534;2023-04-12T13:12:49;0.73;;;0.73;;
6777;SDS011;3426;52.244;10.534;2023-04-12T13:15:16;0.70;;;0.70;;
6777;SDS011;3426;52.244;10.534;2023-04-12T13:17:52;0.70;;;0.70;;
6777;SDS011;3426;52.244;10.534;2023-04-12T13:20:19;0.70;;;0.70;;
6777;SDS011;3426;52.244;10.534;2023-04-12T13:22:46;0.80;;;0.80;;
6777;SDS011;3426;52.244;10.534;2023-04-12T13:25:12;0.70;;;0.70;;
6777;SDS011;3426;52.244;10.534;2023-04-12T13:27:39;0.70;;;0.70;;
6777;SDS011;3426;52.244;10.534;2023-04-12T13:30:06;0.70;;;0.70;;
6777;SDS011;3426;52.244;10.534;2023-04-12T13:32:33;0.70;;;0.70;;
6777;SDS011;3426;52.244;10.534;2023-04-12T13:35:01;0.70;;;0.70;;
6777;SDS011;3426;52.244;10.534;2023-04-12T13:37:28;0.70;;;0.70;;
6777;SDS011;3426;52.244;10.534;2023-04-12T13:39:55;0.70;;;0.70;;
6777;SDS011;3426;52.244;10.534;2023-04-12T13:42:21;0.70;;;0.70;;
6777;SDS011;3426;52.244;10.534;2023-04-12T13:44:48;0.70;;;0.70;;
6777;SDS011;3426;52.244;10.534;2023-04-12T13:47:15;0.70;;;0.70;;
6777;SDS011;3426;52.244;10.534;2023-04-12T13:49:45;0.70;;;0.70;;
6777;SDS011;3426;52.244;10.534;2023-04-12T13:52:11;0.80;;;0.80;;
6777;SDS011;3426;52.244;10.534;2023-04-12T13:54:38;0.80;;;0.80;;
6777;SDS011;3426;52.244;10.534;2023-04-12T13:57:05;0.70;;;0.70;;
6777;SDS011;3426;52.244;10.534;2023-04-12T13:59:33;0.60;;;0.60;;
6777;SDS011;3426;52.244;10.534;2023-04-12T14:01:59;0.60;;;0.60;;
6777;SDS011;3426;52.244;10.534;2023-04-12T14:04:27;0.70;;;0.70;;
6777;SDS011;3426;52.244;10.534;2023-04-12T14:06:54;0.70;;;0.70;;
6777;SDS011;3426;52.244;10.534;2023-04-12T14:09:25;0.63;;;0.63;;
6777;SDS011;3426;52.244;10.534;2023-04-12T14:11:54;0.73;;;0.73;;
6777;SDS011;3426;52.244;10.534;2023-04-12T14:14:23;0.70;;;0.70;;
6777;SDS011;3426;52.244;10.534;2023-04-12T14:16:51;0.70;;;0.70;;
6777;SDS011;3426;52.244;10.534;2023-04-12T14:19:22;0.70;;;0.70;;
6777;SDS011;3426;52.244;10.534;2023-04-12T14:21:49;0.70;;;0.70;;
6777;SDS011;3426;52.244;10.534;2023-04-12T14:24:17;0.80;;;0.80;;
6777;SDS011;3426;52.244;10.534;2023-04-12T14:26:44;0.60;;;0.60;;
6777;SDS011;3426;52.244;10.534;2023-04-12T14:29:11;0.60;;;0.60;;
6777;SDS011;3426;52.244;10.534;2023-04-12T14:31:38;0.70;;;0.70;;
6777;SDS011;3426;52.244;10.534;2023-04-12T14:34:05;0.60;;;0.60;;
6777;SDS011;3426;52.244;10.534;2023-04-12T14:36:34;0.70;;;0.70;;
6777;SDS011;3426;52.244;10.534;2023-04-12T14:39:00;0.70;;;0.70;;
6777;SDS011;3426;52.244;10.534;2023-04-12T14:41:29;0.70;;;0.70;;
6777;SDS011;3426;52.244;10.534;2023-04-12T14:43:59;0.60;;;0.60;;
6777;SDS011;3426;52.244;10.534;2023-04-12T14:46:26;0.70;;;0.70;;
6777;SDS011;3426;52.244;10.534;2023-04-12T14:48:53;0.60;;;0.60;;
6777;SDS011;3426;52.244;10.534;2023-04-12T14:51:22;0.70;;;0.70;;
6777;SDS011;3426;52.244;10.534;2023-04-12T14:53:49;0.73;;;0.73;;
6777;SDS011;3426;52.244;10.534;2023-04-12T14:56:17;0.70;;;0.70;;
6777;SDS011;3426;52.244;10.534;2023-04-12T14:58:52;0.60;;;0.60;;
6777;SDS011;3426;52.244;10.534;2023-04-12T15:01:20;0.70;;;0.70;;
6777;SDS011;3426;52.244;10.534;2023-04-12T15:03:46;0.60;;;0.60;;
6777;SDS011;3426;52.244;10.534;2023-04-12T15:06:13;0.60;;;0.60;;
6777;SDS011;3426;52.244;10.534;2023-04-12T15:08:40;0.70;;;0.70;;
6777;SDS011;3426;52.244;10.534;2023-04-12T15:11:08;0.63;;;0.63;;
6777;SDS011;3426;52.244;10.534;2023-04-12T15:13:37;0.70;;;0.70;;
6777;SDS011;3426;52.244;10.534;2023-04-12T15:16:05;0.70;;;0.70;;
6777;SDS011;3426;52.244;10.534;2023-04-12T15:18:34;0.70;;;0.70;;
6777;SDS011;3426;52.244;10.534;2023-04-12T15:21:05;2.30;;;2.20;;
6777;SDS011;3426;52.244;10.534;2023-04-12T15:23:34;0.70;;;0.70;;
6777;SDS011;3426;52.244;10.534;2023-04-12T15:26:00;0.70;;;0.70;;
6777;SDS011;3426;52.244;10.534;2023-04-12T15:28:30;0.60;;;0.60;;
6777;SDS011;3426;52.244;10.534;2023-04-12T15:30:57;0.70;;;0.70;;
6777;SDS011;3426;52.244;10.534;2023-04-12T15:33:24;0.60;;;0.60;;
6777;SDS011;3426;52.244;10.534;2023-04-12T15:35:52;0.67;;;0.67;;
6777;SDS011;3426;52.244;10.534;2023-04-12T15:38:22;0.60;;;0.60;;
6777;SDS011;3426;52.244;10.534;2023-04-12T15:40:59;0.60;;;0.60;;
6777;SDS011;3426;52.244;10.534;2023-04-12T15:43:26;0.60;;;0.60;;
6777;SDS011;3426;52.244;10.534;2023-04-12T15:45:53;0.60;;;0.60;;
6777;SDS011;3426;52.244;10.534;2023-04-12T15:48:20;0.60;;;0.60;;
6777;SDS011;3426;52.244;10.534;2023-04-12T15:50:48;0.60;;;0.60;;
6777;SDS011;3426;52.244;10.534;2023-04-12T15:53:18;0.60;;;0.60;;
6777;SDS011;3426;52.244;10.534;2023-04-12T15:55:46;0.70;;;0.70;;
6777;SDS011;3426;52.244;10.534;2023-04-12T15:58:13;0.60;;;0.60;;
6777;SDS011;3426;52.244;10.534;2023-04-12T16:00:40;0.60;;;0.60;;
6777;SDS011;3426;52.244;10.534;2023-04-12T16:03:07;0.70;;;0.70;;
6777;SDS011;3426;52.244;10.534;2023-04-12T16:05:34;0.70;;;0.70;;